sensor_id;sensor_type;location;lat;lon;timestamp;temperature;humidity
33095;DHT22;19459;53.044;8.910;2023-04-06T00:02:12;1.90;99.90
33095;DHT22;19459;53.044;8.910;2023-04-06T00:04:37;1.80;99.90
33095;DHT22;19459;53.044;8.910;2023-04-06T00:07:03;1.80;99.90
33095;DHT22;19459;53.044;8.910;2023-04-06T00:09:29;1.80;99.90
33095;DHT22;19459;53.044;8.910;2023-04-06T00:11:55;1.80;99.90
33095;DHT22;19459;53.044;8.910;2023-04-06T00:14:21;1.70;99.90
33095;DHT22;19459;53.044;8.910;2023-04-06T00:16:47;1.70;99.90
33095;DHT22;19459;53.044;8.910;2023-04-06T00:19:13;1.70;99.90
33095;DHT22;19459;53.044;8.910;2023-04-06T00:21:39;1.70;99.90
33095;DHT22;19459;53.044;8.910;2023-04-06T00:24:05;1.60;99.90
33095;DHT22;19459;53.044;8.910;2023-04-06T00:26:31;1.60;99.90
33095;DHT22;19459;53.044;8.910;2023-04-06T00:28:56;1.60;99.90
33095;DHT22;19459;53.044;8.910;2023-04-06T00:31:24;1.60;99.90
33095;DHT22;19459;53.044;8.910;2023-04-06T00:33:50;1.50;99.90
33095;DHT22;19459;53.044;8.910;2023-04-06T00:36:15;1.40;99.90
33095;DHT22;19459;53.044;8.910;2023-04-06T00:38:41;1.50;99.90
33095;DHT22;19459;53.044;8.910;2023-04-06T00:41:07;1.50;99.90
33095;DHT22;19459;53.044;8.910;2023-04-06T00:43:33;1.50;99.90
33095;DHT22;19459;53.044;8.910;2023-04-06T00:45:59;1.40;99.90
33095;DHT22;19459;53.044;8.910;2023-04-06T00:48:24;1.40;99.90
33095;DHT22;19459;53.044;8.910;2023-04-06T00:50:50;1.30;99.90
33095;DHT22;19459;53.044;8.910;2023-04-06T00:53:16;1.30;99.90
33095;DHT22;19459;53.044;8.910;2023-04-06T00:55:42;1.30;99.90
33095;DHT22;19459;53.044;8.910;2023-04-06T00:58:08;1.30;99.90
33095;DHT22;19459;53.044;8.910;2023-04-06T01:00:34;1.30;99.90
33095;DHT22;19459;53.044;8.910;2023-04-06T01:03:00;1.20;99.90
33095;DHT22;19459;53.044;8.910;2023-04-06T01:05:26;1.20;99.90
33095;DHT22;19459;53.044;8.910;2023-04-06T01:07:52;1.20;99.90
33095;DHT22;19459;53.044;8.910;2023-04-06T01:10:25;1.20;99.90
33095;DHT22;19459;53.044;8.910;2023-04-06T01:12:52;1.20;99.90
33095;DHT22;19459;53.044;8.910;2023-04-06T01:15:18;1.10;99.90
33095;DHT22;19459;53.044;8.910;2023-04-06T01:17:45;1.10;99.90
33095;DHT22;19459;53.044;8.910;2023-04-06T01:20:11;1.10;99.90
33095;DHT22;19459;53.044;8.910;2023-04-06T01:22:36;1.00;99.90
33095;DHT22;19459;53.044;8.910;2023-04-06T01:25:02;1.00;99.90
33095;DHT22;19459;53.044;8.910;2023-04-06T01:27:28;1.00;99.90
33095;DHT22;19459;53.044;8.910;2023-04-06T01:29:55;1.00;99.90
33095;DHT22;19459;53.044;8.910;2023-04-06T01:32:21;0.90;99.90
33095;DHT22;19459;53.044;8.910;2023-04-06T01:34:47;0.90;99.90
33095;DHT22;19459;53.044;8.910;2023-04-06T01:37:13;0.90;99.90
33095;DHT22;19459;53.044;8.910;2023-04-06T01:39:39;0.90;99.90
33095;DHT22;19459;53.044;8.910;2023-04-06T01:42:05;0.80;99.90
33095;DHT22;19459;53.044;8.910;2023-04-06T01:44:30;0.90;99.90
33095;DHT22;19459;53.044;8.910;2023-04-06T01:46:56;0.80;99.90
33095;DHT22;19459;53.044;8.910;2023-04-06T01:49:22;0.80;99.90
33095;DHT22;19459;53.044;8.910;2023-04-06T01:51:48;0.80;99.90
33095;DHT22;19459;53.044;8.910;2023-04-06T01:54:14;0.70;99.90
33095;DHT22;19459;53.044;8.910;2023-04-06T01:56:40;0.70;99.90
33095;DHT22;19459;53.044;8.910;2023-04-06T01:59:06;0.70;99.90
33095;DHT22;19459;53.044;8.910;2023-04-06T02:01:32;0.70;99.90
33095;DHT22;19459;53.044;8.910;2023-04-06T02:03:57;0.70;99.90
33095;DHT22;19459;53.044;8.910;2023-04-06T02:06:23;0.70;99.90
33095;DHT22;19459;53.044;8.910;2023-04-06T02:08:50;0.60;99.90
33095;DHT22;19459;53.044;8.910;2023-04-06T02:11:15;0.60;99.90
33095;DHT22;19459;53.044;8.910;2023-04-06T02:13:41;0.60;99.90
33095;DHT22;19459;53.044;8.910;2023-04-06T02:16:07;0.60;99.90
33095;DHT22;19459;53.044;8.910;2023-04-06T02:18:33;0.50;99.90
33095;DHT22;19459;53.044;8.910;2023-04-06T02:20:59;0.60;99.90
33095;DHT22;19459;53.044;8.910;2023-04-06T02:23:24;0.50;99.90
33095;DHT22;19459;53.044;8.910;2023-04-06T02:25:50;0.50;99.90
33095;DHT22;19459;53.044;8.910;2023-04-06T02:28:16;0.50;99.90
33095;DHT22;19459;53.044;8.910;2023-04-06T02:30:42;0.40;99.90
33095;DHT22;19459;53.044;8.910;2023-04-06T02:33:08;0.50;99.90
33095;DHT22;19459;53.044;8.910;2023-04-06T02:35:33;0.40;99.90
33095;DHT22;19459;53.044;8.910;2023-04-06T02:37:59;0.40;99.90
33095;DHT22;19459;53.044;8.910;2023-04-06T02:40:25;0.40;99.90
33095;DHT22;19459;53.044;8.910;2023-04-06T02:42:51;0.40;99.90
33095;DHT22;19459;53.044;8.910;2023-04-06T02:45:17;0.30;99.90
33095;DHT22;19459;53.044;8.910;2023-04-06T02:47:43;0.30;99.90
33095;DHT22;19459;53.044;8.910;2023-04-06T02:50:09;0.30;99.90
33095;DHT22;19459;53.044;8.910;2023-04-06T02:52:35;0.30;99.90
33095;DHT22;19459;53.044;8.910;2023-04-06T02:55:01;0.20;99.90
33095;DHT22;19459;53.044;8.910;2023-04-06T02:57:27;0.30;99.90
33095;DHT22;19459;53.044;8.910;2023-04-06T02:59:52;0.20;99.90
33095;DHT22;19459;53.044;8.910;2023-04-06T03:02:18;0.20;99.90
33095;DHT22;19459;53.044;8.910;2023-04-06T03:04:44;0.20;99.90
33095;DHT22;19459;53.044;8.910;2023-04-06T03:07:10;0.20;99.90
33095;DHT22;19459;53.044;8.910;2023-04-06T03:09:39;0.20;99.90
33095;DHT22;19459;53.044;8.910;2023-04-06T03:12:05;0.20;99.90
33095;DHT22;19459;53.044;8.910;2023-04-06T03:14:31;0.20;99.90
33095;DHT22;19459;53.044;8.910;2023-04-06T03:16:57;0.20;99.90
33095;DHT22;19459;53.044;8.910;2023-04-06T03:19:23;0.10;99.90
33095;DHT22;19459;53.044;8.910;2023-04-06T03:21:49;0.10;99.90
33095;DHT22;19459;53.044;8.910;2023-04-06T03:24:15;0.10;99.90
33095;DHT22;19459;53.044;8.910;2023-04-06T03:26:41;0.10;99.90
33095;DHT22;19459;53.044;8.910;2023-04-06T03:29:07;0.10;99.90
33095;DHT22;19459;53.044;8.910;2023-04-06T03:31:32;0.10;99.90
33095;DHT22;19459;53.044;8.910;2023-04-06T03:33:58;0.10;99.90
33095;DHT22;19459;53.044;8.910;2023-04-06T03:36:24;0.10;99.90
33095;DHT22;19459;53.044;8.910;2023-04-06T03:38:51;0.10;99.90
33095;DHT22;19459;53.044;8.910;2023-04-06T03:41:19;0.10;99.90
33095;DHT22;19459;53.044;8.910;2023-04-06T03:43:45;0.00;99.90
33095;DHT22;19459;53.044;8.910;2023-04-06T03:46:11;0.10;99.90
33095;DHT22;19459;53.044;8.910;2023-04-06T03:48:37;0.00;99.90
33095;DHT22;19459;53.044;8.910;2023-04-06T03:51:03;0.00;99.90
33095;DHT22;19459;53.044;8.910;2023-04-06T03:53:29;0.10;99.90
33095;DHT22;19459;53.044;8.910;2023-04-06T03:55:55;0.10;99.90
33095;DHT22;19459;53.044;8.910;2023-04-06T03:58:21;0.00;99.90
33095;DHT22;19459;53.044;8.910;2023-04-06T04:00:46;0.00;99.90
33095;DHT22;19459;53.044;8.910;2023-04-06T04:03:12;0.00;99.90
33095;DHT22;19459;53.044;8.910;2023-04-06T04:05:38;0.00;99.90
33095;DHT22;19459;53.044;8.910;2023-04-06T04:08:04;-0.10;99.90
33095;DHT22;19459;53.044;8.910;2023-04-06T04:10:33;-0.10;99.90
33095;DHT22;19459;53.044;8.910;2023-04-06T04:12:59;-0.10;99.90
33095;DHT22;19459;53.044;8.910;2023-04-06T04:15:25;-0.10;99.90
33095;DHT22;19459;53.044;8.910;2023-04-06T04:17:50;-0.10;99.90
33095;DHT22;19459;53.044;8.910;2023-04-06T04:20:16;-0.20;99.90
33095;DHT22;19459;53.044;8.910;2023-04-06T04:22:42;-0.20;99.90
33095;DHT22;19459;53.044;8.910;2023-04-06T04:25:09;-0.20;99.90
33095;DHT22;19459;53.044;8.910;2023-04-06T04:27:35;-0.20;99.90
33095;DHT22;19459;53.044;8.910;2023-04-06T04:30:01;-0.20;99.90
33095;DHT22;19459;53.044;8.910;2023-04-06T04:32:27;-0.20;99.90
33095;DHT22;19459;53.044;8.910;2023-04-06T04:34:53;-0.20;99.90
33095;DHT22;19459;53.044;8.910;2023-04-06T04:37:19;-0.20;99.90
33095;DHT22;19459;53.044;8.910;2023-04-06T04:39:45;-0.20;99.90
33095;DHT22;19459;53.044;8.910;2023-04-06T04:42:11;-0.20;99.90
33095;DHT22;19459;53.044;8.910;2023-04-06T04:44:37;-0.20;99.90
33095;DHT22;19459;53.044;8.910;2023-04-06T04:47:03;-0.20;99.90
33095;DHT22;19459;53.044;8.910;2023-04-06T04:49:29;-0.20;99.90
33095;DHT22;19459;53.044;8.910;2023-04-06T04:51:55;-0.20;99.90
33095;DHT22;19459;53.044;8.910;2023-04-06T04:54:21;-0.20;99.90
33095;DHT22;19459;53.044;8.910;2023-04-06T04:56:46;-0.10;99.90
33095;DHT22;19459;53.044;8.910;2023-04-06T04:59:12;0.00;99.90
33095;DHT22;19459;53.044;8.910;2023-04-06T05:01:38;0.00;99.90
33095;DHT22;19459;53.044;8.910;2023-04-06T05:04:04;0.00;99.90
33095;DHT22;19459;53.044;8.910;2023-04-06T05:06:30;0.10;99.90
33095;DHT22;19459;53.044;8.910;2023-04-06T05:08:56;0.20;99.90
33095;DHT22;19459;53.044;8.910;2023-04-06T05:11:21;0.20;99.90
33095;DHT22;19459;53.044;8.910;2023-04-06T05:13:47;0.20;99.90
33095;DHT22;19459;53.044;8.910;2023-04-06T05:16:13;0.30;99.90
33095;DHT22;19459;53.044;8.910;2023-04-06T05:18:39;0.30;99.90
33095;DHT22;19459;53.044;8.910;2023-04-06T05:21:05;0.40;99.90
33095;DHT22;19459;53.044;8.910;2023-04-06T05:23:31;0.40;99.90
33095;DHT22;19459;53.044;8.910;2023-04-06T05:25:57;0.50;99.90
33095;DHT22;19459;53.044;8.910;2023-04-06T05:28:23;0.60;99.90
33095;DHT22;19459;53.044;8.910;2023-04-06T05:30:49;0.60;99.90
33095;DHT22;19459;53.044;8.910;2023-04-06T05:33:15;0.60;99.90
33095;DHT22;19459;53.044;8.910;2023-04-06T05:35:41;0.70;99.90
33095;DHT22;19459;53.044;8.910;2023-04-06T05:38:08;0.70;99.90
33095;DHT22;19459;53.044;8.910;2023-04-06T05:40:36;0.80;99.90
33095;DHT22;19459;53.044;8.910;2023-04-06T05:43:03;0.80;99.90
33095;DHT22;19459;53.044;8.910;2023-04-06T05:45:30;0.90;99.90
33095;DHT22;19459;53.044;8.910;2023-04-06T05:47:56;1.00;99.90
33095;DHT22;19459;53.044;8.910;2023-04-06T05:50:21;1.10;99.90
33095;DHT22;19459;53.044;8.910;2023-04-06T05:52:48;1.20;99.90
33095;DHT22;19459;53.044;8.910;2023-04-06T05:55:14;1.30;99.90
33095;DHT22;19459;53.044;8.910;2023-04-06T05:57:40;1.40;99.90
33095;DHT22;19459;53.044;8.910;2023-04-06T06:00:06;1.50;99.90
33095;DHT22;19459;53.044;8.910;2023-04-06T06:02:34;1.60;99.90
33095;DHT22;19459;53.044;8.910;2023-04-06T06:05:00;1.70;99.90
33095;DHT22;19459;53.044;8.910;2023-04-06T06:07:26;1.80;99.90
33095;DHT22;19459;53.044;8.910;2023-04-06T06:09:51;1.90;99.90
33095;DHT22;19459;53.044;8.910;2023-04-06T06:12:17;2.00;99.90
33095;DHT22;19459;53.044;8.910;2023-04-06T06:14:43;2.10;99.90
33095;DHT22;19459;53.044;8.910;2023-04-06T06:17:09;2.10;99.90
33095;DHT22;19459;53.044;8.910;2023-04-06T06:19:35;2.10;99.90
33095;DHT22;19459;53.044;8.910;2023-04-06T06:22:01;2.20;99.90
33095;DHT22;19459;53.044;8.910;2023-04-06T06:24:28;2.20;99.90
33095;DHT22;19459;53.044;8.910;2023-04-06T06:26:54;2.30;99.90
33095;DHT22;19459;53.044;8.910;2023-04-06T06:29:19;2.40;99.90
33095;DHT22;19459;53.044;8.910;2023-04-06T06:31:45;2.50;99.90
33095;DHT22;19459;53.044;8.910;2023-04-06T06:34:11;2.50;99.90
33095;DHT22;19459;53.044;8.910;2023-04-06T06:36:38;2.70;99.90
33095;DHT22;19459;53.044;8.910;2023-04-06T06:39:04;2.70;99.90
33095;DHT22;19459;53.044;8.910;2023-04-06T06:41:30;2.80;99.90
33095;DHT22;19459;53.044;8.910;2023-04-06T06:43:56;2.90;99.90
33095;DHT22;19459;53.044;8.910;2023-04-06T06:46:21;2.90;99.90
33095;DHT22;19459;53.044;8.910;2023-04-06T06:48:47;3.00;99.90
33095;DHT22;19459;53.044;8.910;2023-04-06T06:51:13;3.10;99.90
33095;DHT22;19459;53.044;8.910;2023-04-06T06:53:39;3.20;99.90
33095;DHT22;19459;53.044;8.910;2023-04-06T06:56:05;3.30;99.90
33095;DHT22;19459;53.044;8.910;2023-04-06T06:58:31;3.40;99.90
33095;DHT22;19459;53.044;8.910;2023-04-06T07:00:57;3.50;99.90
33095;DHT22;19459;53.044;8.910;2023-04-06T07:03:24;3.60;99.90
33095;DHT22;19459;53.044;8.910;2023-04-06T07:05:50;3.80;99.90
33095;DHT22;19459;53.044;8.910;2023-04-06T07:08:20;3.90;99.90
33095;DHT22;19459;53.044;8.910;2023-04-06T07:10:50;4.10;99.90
33095;DHT22;19459;53.044;8.910;2023-04-06T07:13:23;4.40;99.90
33095;DHT22;19459;53.044;8.910;2023-04-06T07:15:50;4.60;99.90
33095;DHT22;19459;53.044;8.910;2023-04-06T07:18:16;4.70;99.90
33095;DHT22;19459;53.044;8.910;2023-04-06T07:20:43;4.90;99.90
33095;DHT22;19459;53.044;8.910;2023-04-06T07:23:11;5.00;99.90
33095;DHT22;19459;53.044;8.910;2023-04-06T07:25:37;5.10;99.90
33095;DHT22;19459;53.044;8.910;2023-04-06T07:28:03;5.10;99.90
33095;DHT22;19459;53.044;8.910;2023-04-06T07:30:33;5.00;99.90
33095;DHT22;19459;53.044;8.910;2023-04-06T07:32:59;5.10;99.90
33095;DHT22;19459;53.044;8.910;2023-04-06T07:35:25;5.10;99.90
33095;DHT22;19459;53.044;8.910;2023-04-06T07:37:53;5.20;99.90
33095;DHT22;19459;53.044;8.910;2023-04-06T07:40:19;5.50;99.90
33095;DHT22;19459;53.044;8.910;2023-04-06T07:42:45;5.70;99.90
33095;DHT22;19459;53.044;8.910;2023-04-06T07:45:11;5.90;99.90
33095;DHT22;19459;53.044;8.910;2023-04-06T07:47:37;6.10;99.90
33095;DHT22;19459;53.044;8.910;2023-04-06T07:50:03;6.20;99.90
33095;DHT22;19459;53.044;8.910;2023-04-06T07:52:30;6.30;99.90
33095;DHT22;19459;53.044;8.910;2023-04-06T07:54:58;6.50;99.90
33095;DHT22;19459;53.044;8.910;2023-04-06T07:57:24;6.70;99.90
33095;DHT22;19459;53.044;8.910;2023-04-06T07:59:50;6.80;99.90
33095;DHT22;19459;53.044;8.910;2023-04-06T08:02:15;6.90;99.90
33095;DHT22;19459;53.044;8.910;2023-04-06T08:04:42;7.00;99.90
33095;DHT22;19459;53.044;8.910;2023-04-06T08:07:08;6.80;99.90
33095;DHT22;19459;53.044;8.910;2023-04-06T08:09:34;7.00;99.90
33095;DHT22;19459;53.044;8.910;2023-04-06T08:12:00;7.10;99.90
33095;DHT22;19459;53.044;8.910;2023-04-06T08:14:26;7.20;99.90
33095;DHT22;19459;53.044;8.910;2023-04-06T08:16:52;7.10;99.90
33095;DHT22;19459;53.044;8.910;2023-04-06T08:19:18;7.20;99.90
33095;DHT22;19459;53.044;8.910;2023-04-06T08:21:45;7.10;99.90
33095;DHT22;19459;53.044;8.910;2023-04-06T08:24:14;7.20;99.90
33095;DHT22;19459;53.044;8.910;2023-04-06T08:26:40;7.40;99.90
33095;DHT22;19459;53.044;8.910;2023-04-06T08:29:06;7.70;99.90
33095;DHT22;19459;53.044;8.910;2023-04-06T08:31:35;8.00;99.90
33095;DHT22;19459;53.044;8.910;2023-04-06T08:34:03;8.10;99.90
33095;DHT22;19459;53.044;8.910;2023-04-06T08:36:30;8.30;99.90
33095;DHT22;19459;53.044;8.910;2023-04-06T08:38:56;8.40;99.00
33095;DHT22;19459;53.044;8.910;2023-04-06T08:41:22;8.50;99.20
33095;DHT22;19459;53.044;8.910;2023-04-06T08:43:51;8.60;98.00
33095;DHT22;19459;53.044;8.910;2023-04-06T08:46:20;8.80;99.00
33095;DHT22;19459;53.044;8.910;2023-04-06T08:48:47;9.10;98.10
33095;DHT22;19459;53.044;8.910;2023-04-06T08:51:15;9.20;96.60
33095;DHT22;19459;53.044;8.910;2023-04-06T08:53:41;8.90;97.20
33095;DHT22;19459;53.044;8.910;2023-04-06T08:56:07;9.20;97.40
33095;DHT22;19459;53.044;8.910;2023-04-06T08:58:39;9.20;97.20
33095;DHT22;19459;53.044;8.910;2023-04-06T09:01:07;9.20;96.70
33095;DHT22;19459;53.044;8.910;2023-04-06T09:03:38;9.60;97.10
33095;DHT22;19459;53.044;8.910;2023-04-06T09:06:06;10.00;96.60
33095;DHT22;19459;53.044;8.910;2023-04-06T09:08:37;10.00;96.70
33095;DHT22;19459;53.044;8.910;2023-04-06T09:11:06;10.40;96.60
33095;DHT22;19459;53.044;8.910;2023-04-06T09:13:53;9.90;95.30
33095;DHT22;19459;53.044;8.910;2023-04-06T09:16:20;9.90;97.00
33095;DHT22;19459;53.044;8.910;2023-04-06T09:18:47;10.10;96.10
33095;DHT22;19459;53.044;8.910;2023-04-06T09:21:17;10.30;95.40
33095;DHT22;19459;53.044;8.910;2023-04-06T09:23:44;10.60;95.20
33095;DHT22;19459;53.044;8.910;2023-04-06T09:26:17;10.90;95.10
33095;DHT22;19459;53.044;8.910;2023-04-06T09:28:57;10.70;94.40
33095;DHT22;19459;53.044;8.910;2023-04-06T09:31:27;10.30;95.00
33095;DHT22;19459;53.044;8.910;2023-04-06T09:33:54;10.30;94.90
33095;DHT22;19459;53.044;8.910;2023-04-06T09:36:35;10.90;96.10
33095;DHT22;19459;53.044;8.910;2023-04-06T09:39:06;10.90;94.50
33095;DHT22;19459;53.044;8.910;2023-04-06T09:41:36;10.80;93.40
33095;DHT22;19459;53.044;8.910;2023-04-06T09:44:12;11.20;94.50
33095;DHT22;19459;53.044;8.910;2023-04-06T09:46:40;11.80;93.40
33095;DHT22;19459;53.044;8.910;2023-04-06T09:49:08;11.80;92.60
33095;DHT22;19459;53.044;8.910;2023-04-06T09:54:22;11.80;90.30
33095;DHT22;19459;53.044;8.910;2023-04-06T10:00:07;12.30;91.60
33095;DHT22;19459;53.044;8.910;2023-04-06T10:08:11;11.60;89.70
33095;DHT22;19459;53.044;8.910;2023-04-06T10:10:39;12.00;90.10
33095;DHT22;19459;53.044;8.910;2023-04-06T10:13:05;12.20;90.00
33095;DHT22;19459;53.044;8.910;2023-04-06T10:15:33;12.40;88.40
33095;DHT22;19459;53.044;8.910;2023-04-06T10:17:59;12.80;88.60
33095;DHT22;19459;53.044;8.910;2023-04-06T10:25:56;13.20;89.40
33095;DHT22;19459;53.044;8.910;2023-04-06T10:28:24;13.10;87.00
33095;DHT22;19459;53.044;8.910;2023-04-06T10:30:57;13.00;86.10
33095;DHT22;19459;53.044;8.910;2023-04-06T10:33:28;13.00;87.60
33095;DHT22;19459;53.044;8.910;2023-04-06T10:35:54;13.20;89.00
33095;DHT22;19459;53.044;8.910;2023-04-06T10:38:21;13.00;86.40
33095;DHT22;19459;53.044;8.910;2023-04-06T10:41:04;13.00;88.10
33095;DHT22;19459;53.044;8.910;2023-04-06T10:43:33;12.70;89.20
33095;DHT22;19459;53.044;8.910;2023-04-06T10:46:04;13.00;87.00
33095;DHT22;19459;53.044;8.910;2023-04-06T10:48:44;13.20;87.20
33095;DHT22;19459;53.044;8.910;2023-04-06T10:51:16;13.30;85.80
33095;DHT22;19459;53.044;8.910;2023-04-06T10:53:47;13.20;85.80
33095;DHT22;19459;53.044;8.910;2023-04-06T10:56:15;13.10;86.60
33095;DHT22;19459;53.044;8.910;2023-04-06T10:58:49;13.20;85.70
33095;DHT22;19459;53.044;8.910;2023-04-06T11:01:19;13.50;86.10
33095;DHT22;19459;53.044;8.910;2023-04-06T11:03:48;13.50;85.00
33095;DHT22;19459;53.044;8.910;2023-04-06T11:06:22;13.60;85.10
33095;DHT22;19459;53.044;8.910;2023-04-06T11:08:53;13.80;83.90
33095;DHT22;19459;53.044;8.910;2023-04-06T11:11:22;13.60;83.40
33095;DHT22;19459;53.044;8.910;2023-04-06T11:13:56;13.60;84.20
33095;DHT22;19459;53.044;8.910;2023-04-06T11:16:29;13.80;84.60
33095;DHT22;19459;53.044;8.910;2023-04-06T11:19:02;13.70;82.90
33095;DHT22;19459;53.044;8.910;2023-04-06T11:24:20;14.20;83.20
33095;DHT22;19459;53.044;8.910;2023-04-06T11:26:49;14.50;81.10
33095;DHT22;19459;53.044;8.910;2023-04-06T11:32:00;14.90;81.40
33095;DHT22;19459;53.044;8.910;2023-04-06T11:34:39;15.10;81.40
33095;DHT22;19459;53.044;8.910;2023-04-06T11:37:11;15.20;79.00
33095;DHT22;19459;53.044;8.910;2023-04-06T11:42:06;14.80;77.90
33095;DHT22;19459;53.044;8.910;2023-04-06T11:44:40;14.80;80.70
33095;DHT22;19459;53.044;8.910;2023-04-06T11:47:11;15.30;79.80
33095;DHT22;19459;53.044;8.910;2023-04-06T11:49:43;15.50;77.00
33095;DHT22;19459;53.044;8.910;2023-04-06T11:52:16;15.30;76.30
33095;DHT22;19459;53.044;8.910;2023-04-06T11:54:42;15.30;77.70
33095;DHT22;19459;53.044;8.910;2023-04-06T11:57:09;15.60;74.80
33095;DHT22;19459;53.044;8.910;2023-04-06T11:59:35;15.00;73.80
33095;DHT22;19459;53.044;8.910;2023-04-06T12:02:04;15.20;74.00
33095;DHT22;19459;53.044;8.910;2023-04-06T12:04:31;15.20;73.80
33095;DHT22;19459;53.044;8.910;2023-04-06T12:06:58;15.00;73.00
33095;DHT22;19459;53.044;8.910;2023-04-06T12:09:24;14.90;71.80
33095;DHT22;19459;53.044;8.910;2023-04-06T12:11:50;14.90;72.30
33095;DHT22;19459;53.044;8.910;2023-04-06T12:14:16;14.90;70.70
33095;DHT22;19459;53.044;8.910;2023-04-06T12:16:41;14.70;72.80
33095;DHT22;19459;53.044;8.910;2023-04-06T12:19:07;14.90;72.30
33095;DHT22;19459;53.044;8.910;2023-04-06T12:21:36;15.20;71.90
33095;DHT22;19459;53.044;8.910;2023-04-06T12:24:03;15.20;71.90
33095;DHT22;19459;53.044;8.910;2023-04-06T12:26:30;15.40;72.30
33095;DHT22;19459;53.044;8.910;2023-04-06T12:28:57;15.20;70.50
33095;DHT22;19459;53.044;8.910;2023-04-06T12:31:28;15.70;72.60
33095;DHT22;19459;53.044;8.910;2023-04-06T12:33:54;15.50;70.60
33095;DHT22;19459;53.044;8.910;2023-04-06T12:36:20;15.50;70.00
33095;DHT22;19459;53.044;8.910;2023-04-06T12:38:50;15.30;71.40
33095;DHT22;19459;53.044;8.910;2023-04-06T12:41:17;15.60;70.90
33095;DHT22;19459;53.044;8.910;2023-04-06T12:43:43;15.70;70.50
33095;DHT22;19459;53.044;8.910;2023-04-06T12:46:10;15.70;70.80
33095;DHT22;19459;53.044;8.910;2023-04-06T12:48:36;15.40;68.90
33095;DHT22;19459;53.044;8.910;2023-04-06T12:51:04;15.30;69.50
33095;DHT22;19459;53.044;8.910;2023-04-06T12:53:32;15.40;68.10
33095;DHT22;19459;53.044;8.910;2023-04-06T12:55:59;15.70;69.70
33095;DHT22;19459;53.044;8.910;2023-04-06T12:58:25;16.20;71.20
33095;DHT22;19459;53.044;8.910;2023-04-06T13:00:52;16.10;69.40
33095;DHT22;19459;53.044;8.910;2023-04-06T13:03:21;16.30;69.50
33095;DHT22;19459;53.044;8.910;2023-04-06T13:05:51;16.80;69.60
33095;DHT22;19459;53.044;8.910;2023-04-06T13:08:19;16.80;68.10
33095;DHT22;19459;53.044;8.910;2023-04-06T13:10:50;16.50;69.90
33095;DHT22;19459;53.044;8.910;2023-04-06T13:13:21;16.10;68.00
33095;DHT22;19459;53.044;8.910;2023-04-06T13:15:52;15.90;68.20
33095;DHT22;19459;53.044;8.910;2023-04-06T13:18:19;15.80;68.10
33095;DHT22;19459;53.044;8.910;2023-04-06T13:20:47;15.70;68.40
33095;DHT22;19459;53.044;8.910;2023-04-06T13:23:14;16.00;67.80
33095;DHT22;19459;53.044;8.910;2023-04-06T13:25:40;15.90;66.00
33095;DHT22;19459;53.044;8.910;2023-04-06T13:28:08;15.60;68.10
33095;DHT22;19459;53.044;8.910;2023-04-06T13:30:38;15.80;68.30
33095;DHT22;19459;53.044;8.910;2023-04-06T13:33:04;16.30;69.10
33095;DHT22;19459;53.044;8.910;2023-04-06T13:35:32;16.50;68.20
33095;DHT22;19459;53.044;8.910;2023-04-06T13:37:59;16.90;69.00
33095;DHT22;19459;53.044;8.910;2023-04-06T13:40:25;17.30;69.10
33095;DHT22;19459;53.044;8.910;2023-04-06T13:42:50;16.20;65.80
33095;DHT22;19459;53.044;8.910;2023-04-06T13:45:16;15.90;66.10
33095;DHT22;19459;53.044;8.910;2023-04-06T13:47:42;15.80;64.60
33095;DHT22;19459;53.044;8.910;2023-04-06T13:50:08;16.20;66.70
33095;DHT22;19459;53.044;8.910;2023-04-06T13:52:35;15.90;66.20
33095;DHT22;19459;53.044;8.910;2023-04-06T13:55:01;15.90;66.40
33095;DHT22;19459;53.044;8.910;2023-04-06T13:57:27;16.20;67.70
33095;DHT22;19459;53.044;8.910;2023-04-06T13:59:55;15.70;66.40
33095;DHT22;19459;53.044;8.910;2023-04-06T14:02:20;15.70;66.60
33095;DHT22;19459;53.044;8.910;2023-04-06T14:04:52;16.10;67.50
33095;DHT22;19459;53.044;8.910;2023-04-06T14:07:20;16.50;67.10
33095;DHT22;19459;53.044;8.910;2023-04-06T14:09:47;16.20;67.70
33095;DHT22;19459;53.044;8.910;2023-04-06T14:12:13;16.20;66.90
33095;DHT22;19459;53.044;8.910;2023-04-06T14:14:38;16.30;67.00
33095;DHT22;19459;53.044;8.910;2023-04-06T14:17:04;16.10;67.10
33095;DHT22;19459;53.044;8.910;2023-04-06T14:19:30;16.40;67.10
33095;DHT22;19459;53.044;8.910;2023-04-06T14:21:57;16.10;67.90
33095;DHT22;19459;53.044;8.910;2023-04-06T14:24:23;16.50;67.80
33095;DHT22;19459;53.044;8.910;2023-04-06T14:26:48;16.70;67.80
33095;DHT22;19459;53.044;8.910;2023-04-06T14:29:14;16.90;66.80
33095;DHT22;19459;53.044;8.910;2023-04-06T14:31:41;16.40;67.20
33095;DHT22;19459;53.044;8.910;2023-04-06T14:34:07;16.30;66.00
33095;DHT22;19459;53.044;8.910;2023-04-06T14:36:33;16.00;66.30
33095;DHT22;19459;53.044;8.910;2023-04-06T14:39:06;16.10;65.70
33095;DHT22;19459;53.044;8.910;2023-04-06T14:41:33;15.90;66.30
33095;DHT22;19459;53.044;8.910;2023-04-06T14:44:00;15.80;65.50
33095;DHT22;19459;53.044;8.910;2023-04-06T14:46:26;15.90;66.50
33095;DHT22;19459;53.044;8.910;2023-04-06T14:48:56;16.00;65.90
33095;DHT22;19459;53.044;8.910;2023-04-06T14:51:26;15.80;66.10
33095;DHT22;19459;53.044;8.910;2023-04-06T14:53:53;16.10;67.10
33095;DHT22;19459;53.044;8.910;2023-04-06T14:56:20;16.40;66.90
33095;DHT22;19459;53.044;8.910;2023-04-06T14:58:47;16.20;67.10
33095;DHT22;19459;53.044;8.910;2023-04-06T15:01:13;16.10;66.10
33095;DHT22;19459;53.044;8.910;2023-04-06T15:03:38;16.20;66.50
33095;DHT22;19459;53.044;8.910;2023-04-06T15:06:05;15.70;66.90
33095;DHT22;19459;53.044;8.910;2023-04-06T15:08:31;15.20;67.20
33095;DHT22;19459;53.044;8.910;2023-04-06T15:10:59;15.20;68.20
33095;DHT22;19459;53.044;8.910;2023-04-06T15:13:25;15.10;68.70
33095;DHT22;19459;53.044;8.910;2023-04-06T15:15:51;14.90;67.00
33095;DHT22;19459;53.044;8.910;2023-04-06T15:18:17;15.00;66.90
33095;DHT22;19459;53.044;8.910;2023-04-06T15:20:43;15.10;68.90
33095;DHT22;19459;53.044;8.910;2023-04-06T15:23:09;15.00;68.70
33095;DHT22;19459;53.044;8.910;2023-04-06T15:25:35;15.00;69.50
33095;DHT22;19459;53.044;8.910;2023-04-06T15:28:00;15.00;70.00
33095;DHT22;19459;53.044;8.910;2023-04-06T15:30:26;14.90;70.40
33095;DHT22;19459;53.044;8.910;2023-04-06T15:32:58;14.90;70.40
33095;DHT22;19459;53.044;8.910;2023-04-06T15:35:29;14.80;70.70
33095;DHT22;19459;53.044;8.910;2023-04-06T15:37:58;14.80;69.70
33095;DHT22;19459;53.044;8.910;2023-04-06T15:40:24;14.70;69.40
33095;DHT22;19459;53.044;8.910;2023-04-06T15:42:50;14.70;69.30
33095;DHT22;19459;53.044;8.910;2023-04-06T15:45:16;14.60;69.50
33095;DHT22;19459;53.044;8.910;2023-04-06T15:47:43;14.60;70.20
33095;DHT22;19459;53.044;8.910;2023-04-06T15:50:11;14.70;70.10
33095;DHT22;19459;53.044;8.910;2023-04-06T15:52:38;14.70;69.70
33095;DHT22;19459;53.044;8.910;2023-04-06T15:55:05;14.60;70.60
33095;DHT22;19459;53.044;8.910;2023-04-06T15:57:33;14.50;69.30
33095;DHT22;19459;53.044;8.910;2023-04-06T15:59:59;14.30;69.60
33095;DHT22;19459;53.044;8.910;2023-04-06T16:02:26;14.30;71.20
33095;DHT22;19459;53.044;8.910;2023-04-06T16:04:56;14.20;70.40